Chapeltown, United Kingdom
Current Conditions -  °F | °C
As of 12:50 PM on Tuesday 21 Oct 2014 (Local Time) from EGCN Reporting Station
Rain Showers Rain Showers  
Wind Chill: 10°   Ceiling: Unl
Heat Index: 10°   Visibility: 4mi
Dew Point:   Wind: 30mph
Humidity: 71%   Direction: 270°W
Pressure: 29.56"   Gusts: 41mph
Location:  53.47°N, 1.47°W
Report Text: EGCN 211150Z 27026G36KT 6000 VCSH FEW018 FEW020CB SCT038 10/05 Q1001
Loading
Personal Weather Stations






























Interactive Weather Map
Tropical Storm Tracking
New forecast layout! Learn more

10-Day Weather Forecast

Advertisements
Track Severe Weather on mobile